Time;durP1;ratioP1;P1;durP2;ratioP2;P2;SDS_P1;SDS_P2;PMS_P1;PMS_P2;Temp;Humidity;BMP_temperature;BMP_pressure;BME280_temperature;BME280_humidity;BME280_pressure;Samples;Min_cycle;Max_cycle;Signal;HPM_P1;HPM_P2
2022/10/11 00:00:57;;;;;;;4.95;4.57;;;12.20;99.90;;;;;;6024713;29;20487;-67
2022/10/11 00:04:02;;;;;;;6.15;5.00;;;12.10;99.90;;;;;;6024675;29;20298;-67
2022/10/11 00:07:07;;;;;;;6.45;4.80;;;12.00;99.90;;;;;;6025188;29;20302;-67
2022/10/11 00:10:13;;;;;;;5.63;4.60;;;12.10;99.90;;;;;;6024714;29;20298;-67
2022/10/11 00:13:18;;;;;;;4.60;4.20;;;12.10;99.90;;;;;;6046661;29;20306;-68
2022/10/11 00:16:24;;;;;;;7.07;4.50;;;12.10;99.90;;;;;;6047967;29;20311;-68
2022/10/11 00:19:29;;;;;;;5.43;4.47;;;12.00;99.90;;;;;;6047205;29;20482;-67
2022/10/11 00:22:35;;;;;;;5.72;5.03;;;12.00;99.90;;;;;;6047974;29;20290;-67
2022/10/11 00:25:40;;;;;;;6.72;4.85;;;12.10;99.90;;;;;;6047309;29;20613;-67
2022/10/11 00:28:45;;;;;;;9.23;5.32;;;12.00;99.90;;;;;;6047252;29;20297;-67
2022/10/11 00:31:51;;;;;;;7.55;5.80;;;12.00;99.90;;;;;;6047539;29;20274;-67
2022/10/11 00:34:58;;;;;;;7.78;4.95;;;12.00;99.90;;;;;;6047327;29;20301;-67
2022/10/11 00:38:03;;;;;;;9.73;5.25;;;12.10;99.90;;;;;;6047235;29;20568;-68
2022/10/11 00:41:08;;;;;;;8.35;5.35;;;12.00;99.90;;;;;;6046907;29;20278;-67
2022/10/11 00:44:17;;;;;;;9.75;5.40;;;11.90;99.90;;;;;;6047083;29;20297;-67
2022/10/11 00:47:25;;;;;;;9.52;4.95;;;11.90;99.90;;;;;;6047598;29;20274;-67
2022/10/11 00:50:32;;;;;;;5.18;4.68;;;11.90;99.90;;;;;;6046836;29;20314;-67
2022/10/11 00:53:38;;;;;;;7.10;4.53;;;12.00;99.90;;;;;;6046870;29;20302;-67
2022/10/11 00:56:44;;;;;;;6.32;4.88;;;11.90;99.90;;;;;;6047322;29;20449;-67
2022/10/11 00:59:52;;;;;;;5.60;4.85;;;11.90;99.90;;;;;;6046920;29;20346;-68
2022/10/11 01:02:59;;;;;;;6.57;4.95;;;11.90;99.90;;;;;;6047071;29;20304;-67
2022/10/11 01:06:04;;;;;;;8.57;5.03;;;11.90;99.90;;;;;;6047474;29;20571;-67
2022/10/11 01:09:11;;;;;;;5.32;4.78;;;11.90;99.90;;;;;;6046784;29;20305;-67
2022/10/11 01:12:19;;;;;;;7.57;4.93;;;11.80;99.90;;;;;;6032756;29;20275;-66
2022/10/11 01:15:29;;;;;;;5.30;4.93;;;11.90;99.90;;;;;;6023861;29;20599;-67
2022/10/11 01:18:44;;;;;;;5.32;4.32;;;11.80;99.90;;;;;;6023600;29;20377;-67
2022/10/11 01:21:57;;;;;;;7.60;4.70;;;11.80;99.90;;;;;;6038085;29;20282;-67
2022/10/11 01:25:19;;;;;;;7.10;4.93;;;11.70;99.90;;;;;;6023502;29;20305;-67
2022/10/11 01:28:41;;;;;;;7.40;4.72;;;11.70;99.90;;;;;;6023685;29;20392;-67
2022/10/11 01:31:52;;;;;;;5.82;4.80;;;11.60;99.90;;;;;;6024206;29;20542;-67
2022/10/11 01:35:00;;;;;;;5.05;4.45;;;11.70;99.90;;;;;;6023531;29;20310;-67
2022/10/11 01:38:12;;;;;;;5.07;4.57;;;11.70;99.90;;;;;;6023443;29;20327;-67
2022/10/11 01:41:23;;;;;;;6.57;4.95;;;11.70;99.90;;;;;;6024193;29;20274;-67
2022/10/11 01:44:28;;;;;;;6.43;4.72;;;11.60;99.90;;;;;;6023409;29;20312;-67
2022/10/11 01:47:35;;;;;;;7.60;5.82;;;11.60;99.90;;;;;;6023776;29;20275;-67
2022/10/11 01:50:46;;;;;;;7.95;6.18;;;11.60;99.90;;;;;;6023033;29;20484;-67
2022/10/11 01:54:22;;;;;;;11.75;9.02;;;11.60;99.90;;;;;;6026146;29;20306;-67
2022/10/11 01:57:57;;;;;;;15.65;9.88;;;11.60;99.90;;;;;;6027765;29;20295;-67
2022/10/11 02:01:11;;;;;;;21.58;12.68;;;11.70;99.90;;;;;;6027029;29;20270;-68
2022/10/11 02:04:27;;;;;;;19.52;13.20;;;11.70;99.90;;;;;;6041060;29;20294;-67
2022/10/11 02:07:39;;;;;;;21.85;14.77;;;11.70;99.90;;;;;;6027114;29;20307;-67
2022/10/11 02:10:48;;;;;;;24.95;13.85;;;11.80;99.90;;;;;;6029509;29;20567;-66
2022/10/11 02:13:58;;;;;;;20.15;12.93;;;11.70;99.90;;;;;;6049690;29;20297;-67
2022/10/11 02:17:08;;;;;;;24.73;12.10;;;11.80;99.90;;;;;;6050016;29;20297;-66
2022/10/11 02:20:20;;;;;;;18.90;11.27;;;11.70;99.90;;;;;;6049708;29;20506;-66
2022/10/11 02:23:30;;;;;;;20.27;10.52;;;11.80;99.90;;;;;;6049492;29;20467;-67
2022/10/11 02:26:35;;;;;;;15.18;8.65;;;11.80;99.90;;;;;;6049882;29;20281;-67
2022/10/11 02:29:42;;;;;;;10.35;6.20;;;11.90;99.90;;;;;;6049464;29;20301;-66
2022/10/11 02:32:48;;;;;;;7.22;5.68;;;11.80;99.90;;;;;;6050195;29;20557;-67
2022/10/11 02:35:59;;;;;;;5.22;4.70;;;11.80;99.90;;;;;;6063448;29;20305;-66
2022/10/11 02:39:08;;;;;;;4.97;4.57;;;11.80;99.90;;;;;;6049315;29;20483;-67
2022/10/11 02:42:17;;;;;;;8.32;4.60;;;11.80;99.90;;;;;;6063911;29;20274;-67
2022/10/11 02:45:27;;;;;;;7.28;4.65;;;11.80;99.90;;;;;;6049138;29;20307;-67
2022/10/11 02:48:34;;;;;;;6.43;4.47;;;11.80;99.90;;;;;;6049125;29;20310;-67
2022/10/11 02:51:40;;;;;;;4.82;4.30;;;11.80;99.90;;;;;;6049846;29;20279;-67
2022/10/11 02:54:45;;;;;;;6.30;4.10;;;11.70;99.90;;;;;;6049143;29;20301;-67
2022/10/11 02:57:50;;;;;;;8.27;4.45;;;11.70;99.90;;;;;;6049772;29;20482;-67
2022/10/11 03:00:55;;;;;;;4.03;3.83;;;11.80;99.90;;;;;;6042601;29;20306;-67
2022/10/11 03:03:59;;;;;;;5.30;3.95;;;11.80;99.90;;;;;;6034952;29;20293;-66
2022/10/11 03:07:06;;;;;;;5.72;4.00;;;11.80;99.90;;;;;;6036408;29;20303;-67
2022/10/11 03:10:12;;;;;;;4.75;4.05;;;11.80;99.90;;;;;;6044197;29;20266;-67
2022/10/11 03:13:17;;;;;;;4.70;4.30;;;11.80;99.90;;;;;;6048657;29;20306;-67
2022/10/11 03:16:22;;;;;;;3.60;3.50;;;11.70;99.90;;;;;;6049274;29;20274;-67
2022/10/11 03:19:27;;;;;;;5.35;3.80;;;11.70;99.90;;;;;;6039507;29;20327;-66
2022/10/11 03:22:33;;;;;;;4.00;3.78;;;11.70;99.90;;;;;;6025436;29;20303;-66
2022/10/11 03:25:38;;;;;;;4.20;3.80;;;11.70;99.90;;;;;;6025897;29;20274;-67
2022/10/11 03:28:43;;;;;;;4.32;4.00;;;11.60;99.90;;;;;;6025744;29;20635;-67
2022/10/11 03:31:48;;;;;;;3.67;3.33;;;11.40;99.90;;;;;;6025817;29;20282;-67
2022/10/11 03:34:53;;;;;;;3.88;3.67;;;11.60;99.90;;;;;;6024948;29;20459;-67
2022/10/11 03:37:59;;;;;;;3.90;3.53;;;11.50;99.90;;;;;;6045546;29;20297;-67
2022/10/11 03:41:04;;;;;;;3.67;3.40;;;11.60;99.90;;;;;;6048759;29;20279;-67
2022/10/11 03:44:11;;;;;;;4.43;3.95;;;11.60;99.90;;;;;;6048215;29;20306;-67
2022/10/11 03:47:16;;;;;;;3.92;3.65;;;11.60;99.90;;;;;;6048127;29;20313;-67
2022/10/11 03:50:21;;;;;;;3.80;3.38;;;11.60;99.90;;;;;;6048336;29;20282;-67
2022/10/11 03:53:27;;;;;;;3.33;2.83;;;11.40;99.90;;;;;;6047981;29;20465;-67
2022/10/11 03:56:32;;;;;;;3.03;2.92;;;11.50;99.90;;;;;;6048051;29;20310;-67
2022/10/11 03:59:37;;;;;;;3.55;3.17;;;11.50;99.90;;;;;;6047803;29;20317;-67
2022/10/11 04:02:42;;;;;;;4.50;3.17;;;11.50;99.90;;;;;;6047609;29;20482;-67
2022/10/11 04:05:47;;;;;;;3.95;2.85;;;11.50;99.90;;;;;;6048338;29;20568;-67
2022/10/11 04:08:53;;;;;;;3.53;3.28;;;11.60;99.90;;;;;;6047641;29;20310;-68
2022/10/11 04:11:58;;;;;;;3.42;3.13;;;11.50;99.90;;;;;;6027999;29;20274;-68
2022/10/11 04:15:04;;;;;;;3.25;3.15;;;11.30;99.90;;;;;;6024484;29;20278;-68
2022/10/11 04:18:11;;;;;;;5.53;2.92;;;11.40;99.90;;;;;;6024796;29;20306;-67
2022/10/11 04:21:16;;;;;;;3.35;3.08;;;11.40;99.90;;;;;;6024741;29;20278;-67
2022/10/11 04:24:23;;;;;;;3.33;2.97;;;11.40;99.90;;;;;;6024498;29;20302;-67
2022/10/11 04:27:28;;;;;;;2.40;2.40;;;11.50;99.90;;;;;;6024518;29;20313;-67
2022/10/11 04:30:33;;;;;;;4.93;3.17;;;11.40;99.90;;;;;;6024959;29;20465;-67
2022/10/11 04:33:38;;;;;;;2.80;2.60;;;11.40;99.90;;;;;;6024281;29;20302;-67
2022/10/11 04:36:43;;;;;;;3.63;2.75;;;11.40;99.90;;;;;;6024885;29;20274;-67
2022/10/11 04:39:54;;;;;;;2.45;2.05;;;11.50;99.90;;;;;;6024215;29;20314;-67
2022/10/11 04:42:59;;;;;;;2.75;2.40;;;11.30;99.90;;;;;;6024022;29;20443;-67
2022/10/11 04:46:05;;;;;;;2.20;2.10;;;11.40;99.90;;;;;;6024849;29;20371;-67
2022/10/11 04:49:11;;;;;;;3.50;2.40;;;11.30;99.90;;;;;;6024502;29;20307;-66
2022/10/11 04:52:15;;;;;;;5.45;2.45;;;11.30;99.90;;;;;;6023963;29;20306;-67
2022/10/11 04:55:22;;;;;;;3.83;2.08;;;11.30;99.90;;;;;;6024366;29;20278;-66
2022/10/11 04:58:27;;;;;;;2.40;2.30;;;11.30;99.90;;;;;;6023701;29;20340;-66
2022/10/11 05:01:32;;;;;;;4.32;2.35;;;11.30;99.90;;;;;;6024524;29;20283;-67
2022/10/11 05:04:37;;;;;;;3.45;2.10;;;11.30;99.90;;;;;;6024190;29;20310;-67
2022/10/11 05:07:42;;;;;;;2.85;2.20;;;11.20;99.90;;;;;;6023643;29;20310;-67
2022/10/11 05:10:57;;;;;;;2.10;1.88;;;11.20;99.90;;;;;;6034291;29;20270;-67
2022/10/11 05:14:02;;;;;;;2.30;2.20;;;11.20;99.90;;;;;;6046971;29;20306;-67
2022/10/11 05:17:07;;;;;;;3.08;2.25;;;11.30;99.90;;;;;;6046851;29;20277;-67
2022/10/11 05:20:13;;;;;;;3.05;2.08;;;11.20;99.90;;;;;;6047166;29;20294;-67
2022/10/11 05:23:18;;;;;;;4.80;2.30;;;11.20;99.90;;;;;;6046680;29;20303;-67
2022/10/11 05:26:25;;;;;;;4.10;1.60;;;11.20;99.90;;;;;;6047802;29;20465;-67
2022/10/11 05:29:30;;;;;;;2.55;1.90;;;11.30;99.90;;;;;;6051569;29;20302;-66
2022/10/11 05:32:35;;;;;;;1.67;1.55;;;11.20;99.90;;;;;;6051130;29;20566;-67
2022/10/11 05:35:40;;;;;;;3.58;1.67;;;11.20;99.90;;;;;;6051449;29;20278;-66
2022/10/11 05:38:45;;;;;;;7.03;1.80;;;11.20;99.90;;;;;;6051336;29;20293;-67
2022/10/11 05:41:52;;;;;;;6.28;1.70;;;11.10;99.90;;;;;;6051318;29;20460;-67
2022/10/11 05:44:56;;;;;;;3.38;1.42;;;11.00;99.90;;;;;;6050817;29;20274;-66
2022/10/11 05:48:01;;;;;;;1.98;1.65;;;11.00;99.90;;;;;;6050898;29;20315;-67
2022/10/11 05:51:09;;;;;;;4.32;1.27;;;11.00;99.90;;;;;;6050669;29;20274;-67
2022/10/11 05:54:14;;;;;;;5.95;1.80;;;11.00;99.90;;;;;;6050471;29;20298;-67
2022/10/11 05:57:20;;;;;;;2.70;1.50;;;11.10;99.90;;;;;;6050835;29;20277;-67
2022/10/11 06:00:25;;;;;;;3.97;1.40;;;11.00;99.90;;;;;;6050806;29;20297;-67
2022/10/11 06:03:30;;;;;;;3.80;1.48;;;11.00;99.90;;;;;;6050257;29;20457;-67
2022/10/11 06:06:35;;;;;;;3.15;1.40;;;11.00;99.90;;;;;;6050730;29;20283;-68
2022/10/11 06:09:40;;;;;;;4.53;1.75;;;10.90;99.90;;;;;;6048780;29;20274;-67
2022/10/11 06:12:46;;;;;;;4.85;1.65;;;10.80;99.90;;;;;;6027610;29;20452;-66
2022/10/11 06:15:51;;;;;;;4.30;1.40;;;10.80;99.90;;;;;;6027510;29;20279;-67
2022/10/11 06:18:57;;;;;;;2.60;1.27;;;10.80;99.90;;;;;;6027142;29;20294;-67
2022/10/11 06:22:02;;;;;;;6.93;1.60;;;10.70;99.90;;;;;;6027559;29;20275;-67
2022/10/11 06:25:08;;;;;;;2.97;1.40;;;10.70;99.90;;;;;;6027176;29;20278;-67
2022/10/11 06:28:16;;;;;;;4.38;1.58;;;10.70;99.90;;;;;;6027107;29;20558;-67
2022/10/11 06:31:21;;;;;;;5.47;1.40;;;10.60;99.90;;;;;;6026820;29;20579;-67
2022/10/11 06:34:26;;;;;;;2.55;1.40;;;10.60;99.90;;;;;;6027395;29;20282;-68
2022/10/11 06:37:31;;;;;;;6.88;1.67;;;10.70;99.90;;;;;;6026431;29;20275;-66
2022/10/11 06:40:35;;;;;;;4.75;1.60;;;10.60;99.90;;;;;;6025843;29;20453;-67
2022/10/11 06:43:42;;;;;;;4.22;1.85;;;10.60;99.90;;;;;;6026878;29;20275;-66
2022/10/11 06:46:47;;;;;;;4.03;1.42;;;10.60;99.90;;;;;;6026943;29;20400;-67
2022/10/11 06:49:52;;;;;;;1.52;1.48;;;10.50;99.90;;;;;;6026461;29;20323;-67
2022/10/11 06:52:57;;;;;;;9.25;1.27;;;10.50;99.90;;;;;;6026319;29;20270;-67
2022/10/11 06:56:03;;;;;;;1.60;1.48;;;10.50;99.90;;;;;;6026481;29;20274;-65
2022/10/11 06:59:10;;;;;;;2.47;1.63;;;10.40;99.90;;;;;;6025985;29;20298;-67
2022/10/11 07:02:15;;;;;;;4.05;1.70;;;10.40;99.90;;;;;;6026542;29;20298;-67
2022/10/11 07:05:21;;;;;;;2.33;1.50;;;10.50;99.90;;;;;;6026173;29;20275;-67
2022/10/11 07:08:26;;;;;;;5.20;1.70;;;10.50;99.90;;;;;;6025960;29;20302;-67
2022/10/11 07:11:31;;;;;;;2.85;1.70;;;10.50;99.90;;;;;;6042098;29;20269;-67
2022/10/11 07:14:37;;;;;;;4.63;1.40;;;10.50;99.90;;;;;;6049311;29;20278;-66
2022/10/11 07:17:42;;;;;;;5.95;1.50;;;10.50;99.90;;;;;;6048900;29;20274;-67
2022/10/11 07:20:47;;;;;;;7.40;2.03;;;10.50;99.90;;;;;;6049129;29;20293;-67
2022/10/11 07:23:52;;;;;;;5.07;1.48;;;10.40;99.90;;;;;;6049085;29;20280;-67
2022/10/11 07:26:57;;;;;;;5.60;1.33;;;10.50;99.90;;;;;;6048439;29;20277;-67
2022/10/11 07:30:04;;;;;;;3.33;1.30;;;10.50;99.90;;;;;;6048959;29;20565;-67
2022/10/11 07:33:15;;;;;;;2.40;1.40;;;10.40;99.90;;;;;;6048499;29;20278;-67
2022/10/11 07:36:22;;;;;;;3.20;1.40;;;10.50;99.90;;;;;;6048815;29;20278;-67
2022/10/11 07:39:26;;;;;;;5.38;1.30;;;10.50;99.90;;;;;;6062336;29;20309;-67
2022/10/11 07:42:33;;;;;;;4.60;1.35;;;10.60;99.90;;;;;;6048267;29;20279;-67
2022/10/11 07:45:40;;;;;;;2.25;1.30;;;10.60;99.90;;;;;;6048690;29;20273;-67
2022/10/11 07:48:45;;;;;;;3.17;2.03;;;10.50;99.90;;;;;;6048130;29;20294;-67
2022/10/11 07:51:50;;;;;;;4.03;1.70;;;10.50;99.90;;;;;;6048172;29;20465;-67
2022/10/11 07:54:55;;;;;;;6.43;1.50;;;10.60;99.90;;;;;;6048374;29;20274;-67
2022/10/11 07:58:00;;;;;;;6.72;1.65;;;10.70;99.90;;;;;;6048117;29;20282;-68
2022/10/11 08:01:06;;;;;;;3.60;1.48;;;10.60;99.90;;;;;;6048315;29;20313;-68
2022/10/11 08:04:12;;;;;;;2.83;1.00;;;10.70;99.90;;;;;;6048218;29;20277;-67
2022/10/11 08:07:17;;;;;;;3.13;1.10;;;10.60;99.90;;;;;;6047650;29;20301;-67
2022/10/11 08:10:22;;;;;;;9.80;6.53;;;10.70;99.90;;;;;;6041024;29;20283;-67
2022/10/11 08:13:27;;;;;;;2.78;1.55;;;10.70;99.90;;;;;;6025245;29;20278;-67
2022/10/11 08:16:33;;;;;;;4.32;1.60;;;10.70;99.90;;;;;;6024647;29;20275;-67
2022/10/11 08:19:38;;;;;;;2.05;1.50;;;10.70;99.90;;;;;;6024917;29;20347;-67
2022/10/11 08:22:43;;;;;;;6.55;1.65;;;10.70;99.90;;;;;;6038885;29;20472;-67
2022/10/11 08:25:48;;;;;;;8.70;1.90;;;10.70;99.90;;;;;;6024944;29;20583;-67
2022/10/11 08:28:53;;;;;;;6.25;1.58;;;10.80;99.90;;;;;;6024849;29;20282;-67
2022/10/11 08:32:00;;;;;;;1.42;1.17;;;10.70;99.90;;;;;;6024400;29;20283;-67
2022/10/11 08:35:06;;;;;;;5.47;1.50;;;10.80;99.90;;;;;;6024810;29;20270;-67
2022/10/11 08:38:13;;;;;;;3.22;1.50;;;10.80;99.90;;;;;;6024430;29;20282;-67
2022/10/11 08:41:28;;;;;;;3.17;1.83;;;10.80;99.90;;;;;;6024639;29;20294;-67
2022/10/11 08:44:38;;;;;;;5.22;2.03;;;10.90;99.90;;;;;;6024770;29;20275;-66
2022/10/11 08:48:12;;;;;;;6.18;1.60;;;10.90;99.90;;;;;;6024678;29;20279;-67
2022/10/11 08:51:23;;;;;;;5.38;1.30;;;11.00;99.90;;;;;;6024612;29;20275;-67
2022/10/11 08:54:35;;;;;;;6.57;1.40;;;11.00;99.90;;;;;;6024618;29;20278;-67
2022/10/11 08:57:51;;;;;;;2.92;1.50;;;11.00;99.90;;;;;;6024588;29;20271;-67
2022/10/11 09:00:57;;;;;;;8.15;1.70;;;11.00;99.90;;;;;;6024364;29;20295;-67
2022/10/11 09:04:04;;;;;;;4.85;1.67;;;11.00;99.90;;;;;;6029036;29;20279;-67
2022/10/11 09:07:21;;;;;;;7.85;1.65;;;11.00;99.90;;;;;;6029191;29;20457;-67
2022/10/11 09:10:57;;;;;;;3.67;1.30;;;11.00;99.90;;;;;;6036415;29;20274;-67
2022/10/11 09:14:31;;;;;;;5.63;1.42;;;11.10;99.90;;;;;;6051994;29;20457;-67
2022/10/11 09:17:56;;;;;;;1.50;1.40;;;11.10;99.90;;;;;;6051414;29;20269;-67
2022/10/11 09:21:18;;;;;;;3.20;1.13;;;11.20;99.90;;;;;;6051314;29;20293;-67
2022/10/11 09:24:37;;;;;;;7.28;1.73;;;11.20;99.90;;;;;;6051262;29;20273;-67
2022/10/11 09:27:49;;;;;;;4.50;1.40;;;11.20;99.90;;;;;;6051293;29;20444;-67
2022/10/11 09:31:10;;;;;;;6.38;1.40;;;11.20;99.90;;;;;;6051665;29;20274;-67
2022/10/11 09:34:16;;;;;;;1.60;1.27;;;11.10;99.90;;;;;;6051104;29;20465;-67
2022/10/11 09:37:29;;;;;;;7.40;1.33;;;11.10;99.90;;;;;;6051032;29;20274;-67
2022/10/11 09:40:45;;;;;;;4.72;1.20;;;11.10;99.90;;;;;;6051325;29;20290;-67
2022/10/11 09:43:52;;;;;;;2.35;1.50;;;11.10;99.90;;;;;;6051228;29;20577;-67
2022/10/11 09:46:58;;;;;;;3.75;1.30;;;11.20;99.90;;;;;;6051175;29;20269;-67
2022/10/11 09:50:06;;;;;;;4.43;1.25;;;11.20;99.90;;;;;;6050724;29;20274;-67
2022/10/11 09:53:13;;;;;;;7.22;1.30;;;11.20;99.90;;;;;;6051045;29;20278;-67
2022/10/11 09:56:18;;;;;;;5.78;1.10;;;11.20;99.90;;;;;;6050589;29;20457;-67
2022/10/11 09:59:30;;;;;;;5.13;1.17;;;11.30;99.90;;;;;;6050938;29;20273;-67
2022/10/11 10:02:42;;;;;;;2.22;1.17;;;11.30;99.90;;;;;;6050768;29;20319;-67
2022/10/11 10:05:47;;;;;;;4.00;1.30;;;11.40;99.90;;;;;;6050549;29;20278;-67
2022/10/11 10:08:54;;;;;;;3.88;1.58;;;11.40;99.90;;;;;;6050434;29;20582;-67
2022/10/11 10:11:59;;;;;;;1.95;1.48;;;11.40;99.90;;;;;;6031310;29;20274;-67
2022/10/11 10:15:08;;;;;;;5.25;1.15;;;11.40;99.90;;;;;;6026433;29;20274;-68
2022/10/11 10:18:22;;;;;;;2.92;1.30;;;11.50;99.90;;;;;;6027587;29;20566;-66
2022/10/11 10:21:30;;;;;;;3.67;1.13;;;11.50;99.90;;;;;;6027254;29;20566;-66
2022/10/11 10:24:40;;;;;;;1.30;1.27;;;11.60;99.90;;;;;;6028387;29;20274;-67
2022/10/11 10:27:57;;;;;;;1.20;1.00;;;11.60;99.90;;;;;;6027485;29;20271;-67
2022/10/11 10:31:02;;;;;;;1.08;0.98;;;11.50;99.90;;;;;;6027504;29;20279;-68
2022/10/11 10:34:15;;;;;;;3.85;1.20;;;11.60;99.90;;;;;;6026995;29;20271;-68
2022/10/11 10:37:27;;;;;;;1.10;1.10;;;11.60;99.90;;;;;;6026892;29;20279;-67
2022/10/11 10:40:41;;;;;;;1.60;1.10;;;11.60;99.90;;;;;;6026787;29;20475;-67
2022/10/11 10:43:56;;;;;;;0.90;0.80;;;11.60;99.90;;;;;;6026620;29;20294;-67
2022/10/11 10:47:07;;;;;;;2.47;1.02;;;11.60;99.90;;;;;;6026681;29;20274;-67
2022/10/11 10:50:18;;;;;;;4.57;1.17;;;11.70;99.90;;;;;;6026344;29;20267;-67
2022/10/11 10:53:29;;;;;;;5.65;1.23;;;11.80;99.90;;;;;;6026805;29;20274;-67
2022/10/11 10:56:42;;;;;;;1.25;1.00;;;11.80;99.90;;;;;;6026383;29;20456;-66
2022/10/11 11:00:04;;;;;;;1.75;1.02;;;11.80;99.90;;;;;;6026443;29;20275;-67
2022/10/11 11:03:21;;;;;;;3.05;1.20;;;11.80;99.90;;;;;;6026403;29;20290;-68
2022/10/11 11:06:31;;;;;;;1.05;0.88;;;11.80;99.90;;;;;;6026458;29;20274;-66
2022/10/11 11:09:46;;;;;;;3.90;1.33;;;11.90;99.90;;;;;;6027445;29;20302;-67
2022/10/11 11:13:04;;;;;;;2.22;0.80;;;11.90;99.90;;;;;;6049454;29;20331;-67
2022/10/11 11:16:16;;;;;;;2.28;0.75;;;11.90;99.90;;;;;;6049339;29;20278;-67
2022/10/11 11:19:34;;;;;;;1.05;0.90;;;11.90;99.90;;;;;;6048711;29;20278;-67
2022/10/11 11:22:48;;;;;;;2.08;0.93;;;11.90;99.90;;;;;;6048813;29;20290;-67
2022/10/11 11:26:01;;;;;;;1.63;1.00;;;11.90;99.90;;;;;;6048312;29;20274;-67
2022/10/11 11:29:20;;;;;;;9.23;1.25;;;12.00;99.90;;;;;;6048954;29;20277;-67
2022/10/11 11:32:35;;;;;;;1.00;1.00;;;12.00;99.90;;;;;;6048887;29;20282;-67
2022/10/11 11:35:44;;;;;;;1.13;1.05;;;12.00;99.90;;;;;;6048861;29;20274;-67
2022/10/11 11:38:53;;;;;;;0.90;0.90;;;12.10;99.90;;;;;;6048969;29;20570;-68
2022/10/11 11:42:05;;;;;;;3.13;0.95;;;12.00;99.90;;;;;;6048418;29;20365;-68
2022/10/11 11:45:22;;;;;;;0.70;0.70;;;12.00;99.90;;;;;;6048298;29;20566;-67
2022/10/11 11:48:27;;;;;;;0.80;0.80;;;12.00;99.90;;;;;;6048655;29;20293;-67
2022/10/11 11:51:36;;;;;;;0.95;0.90;;;12.00;99.90;;;;;;6048671;29;20278;-67
2022/10/11 11:54:51;;;;;;;0.70;0.70;;;12.00;99.90;;;;;;6048395;29;20586;-67
2022/10/11 11:58:05;;;;;;;1.33;0.60;;;12.00;99.90;;;;;;6048061;29;20278;-67
2022/10/11 12:01:22;;;;;;;1.02;0.70;;;12.00;99.90;;;;;;6047922;29;20274;-67
2022/10/11 12:04:37;;;;;;;3.30;0.65;;;12.00;99.90;;;;;;6047923;29;20294;-67
2022/10/11 12:07:57;;;;;;;1.73;0.80;;;12.00;99.90;;;;;;6048235;29;20311;-67
2022/10/11 12:11:03;;;;;;;1.00;1.00;;;12.10;99.90;;;;;;6036099;29;20358;-67
2022/10/11 12:14:29;;;;;;;2.03;0.90;;;12.10;99.90;;;;;;6025019;29;20286;-67
2022/10/11 12:18:05;;;;;;;0.70;0.70;;;12.10;99.90;;;;;;6025155;29;20271;-68
2022/10/11 12:21:22;;;;;;;1.30;0.60;;;12.10;99.90;;;;;;6025071;29;20278;-67
2022/10/11 12:24:55;;;;;;;0.80;0.77;;;12.10;99.90;;;;;;6024597;29;20302;-67
2022/10/11 12:28:02;;;;;;;3.60;0.73;;;12.10;99.90;;;;;;6024955;29;20455;-67
2022/10/11 12:31:20;;;;;;;1.15;0.80;;;12.10;99.90;;;;;;6025010;29;20554;-67
2022/10/11 12:34:36;;;;;;;3.42;0.80;;;12.10;99.90;;;;;;6024499;29;20279;-67
2022/10/11 12:37:51;;;;;;;2.38;0.70;;;12.10;99.90;;;;;;6024377;29;20278;-67
2022/10/11 12:40:59;;;;;;;3.75;0.82;;;12.20;99.90;;;;;;6024948;29;20278;-67
2022/10/11 12:44:14;;;;;;;3.30;0.90;;;12.20;99.90;;;;;;6024811;29;20302;-67
2022/10/11 12:47:39;;;;;;;2.55;0.90;;;12.20;99.90;;;;;;6024784;29;20279;-67
2022/10/11 12:50:55;;;;;;;3.70;1.00;;;12.20;99.90;;;;;;6021674;29;20279;-67
2022/10/11 12:54:40;;;;;;;2.15;1.13;;;12.30;99.90;;;;;;6024135;29;20457;-67
2022/10/11 12:58:14;;;;;;;0.82;0.80;;;12.30;99.90;;;;;;6018415;29;20279;-66
2022/10/11 13:01:21;;;;;;;2.88;0.88;;;12.30;99.90;;;;;;6024053;29;20457;-67
2022/10/11 13:04:30;;;;;;;2.72;0.80;;;12.30;99.90;;;;;;6024359;29;20302;-66
2022/10/11 13:07:36;;;;;;;0.70;0.70;;;12.30;99.90;;;;;;6024526;29;20310;-66
2022/10/11 13:10:45;;;;;;;0.70;0.70;;;12.30;99.90;;;;;;6033837;29;20270;-67
2022/10/11 13:13:54;;;;;;;1.55;0.70;;;12.30;99.90;;;;;;6047283;29;20302;-67
2022/10/11 13:17:12;;;;;;;0.95;0.85;;;12.30;99.90;;;;;;6047239;29;20269;-67
2022/10/11 13:20:20;;;;;;;2.53;0.70;;;12.30;99.90;;;;;;6046891;29;20535;-67
2022/10/11 13:23:30;;;;;;;4.47;0.80;;;12.30;99.90;;;;;;6047228;29;20494;-67
2022/10/11 13:26:35;;;;;;;2.22;1.15;;;12.40;99.90;;;;;;6046812;29;20282;-67
2022/10/11 13:29:45;;;;;;;0.90;0.90;;;12.30;99.90;;;;;;6046714;29;20293;-67
2022/10/11 13:32:50;;;;;;;2.08;0.63;;;12.30;99.90;;;;;;6047214;29;20274;-67
2022/10/11 13:35:55;;;;;;;0.80;0.80;;;12.30;99.90;;;;;;6047033;29;20274;-67
2022/10/11 13:39:02;;;;;;;1.42;0.90;;;12.30;99.90;;;;;;6046563;29;20278;-67
2022/10/11 13:42:11;;;;;;;0.70;0.70;;;12.30;99.90;;;;;;6046649;29;20441;-67
2022/10/11 13:45:19;;;;;;;1.00;0.70;;;12.30;99.90;;;;;;6061076;29;20298;-67
2022/10/11 13:48:24;;;;;;;2.30;0.68;;;12.30;99.90;;;;;;6049044;29;20278;-67
2022/10/11 13:51:37;;;;;;;1.02;0.90;;;12.30;99.90;;;;;;6051177;29;20274;-67
2022/10/11 13:54:58;;;;;;;2.95;0.80;;;12.30;99.90;;;;;;6051030;29;20278;-67
2022/10/11 13:58:09;;;;;;;2.10;0.70;;;12.30;99.90;;;;;;6051023;29;20270;-67
2022/10/11 14:01:23;;;;;;;2.25;0.60;;;12.30;99.90;;;;;;6050654;29;20270;-67
2022/10/11 14:04:28;;;;;;;2.78;0.70;;;12.30;99.90;;;;;;6050610;29;20641;-66
2022/10/11 14:07:39;;;;;;;0.93;0.93;;;12.30;99.90;;;;;;6049742;29;20310;-66
2022/10/11 14:10:47;;;;;;;0.60;0.60;;;12.20;99.90;;;;;;6040909;29;20271;-67
2022/10/11 14:13:59;;;;;;;0.70;0.70;;;12.20;99.60;;;;;;6027615;29;20274;-67
2022/10/11 14:17:11;;;;;;;1.58;0.60;;;12.20;99.70;;;;;;6027185;29;20274;-67
2022/10/11 14:20:21;;;;;;;1.38;0.93;;;12.10;99.20;;;;;;6041668;29;20274;-67
2022/10/11 14:23:26;;;;;;;1.17;0.60;;;12.20;99.90;;;;;;6027157;29;20271;-67
2022/10/11 14:26:38;;;;;;;3.95;0.60;;;12.10;99.60;;;;;;6026865;29;20275;-67
2022/10/11 14:29:44;;;;;;;0.63;0.63;;;12.20;99.90;;;;;;6027310;29;20278;-67
2022/10/11 14:33:10;;;;;;;5.00;0.70;;;12.20;99.50;;;;;;6027342;29;20457;-67
2022/10/11 14:36:15;;;;;;;2.47;0.70;;;12.20;99.60;;;;;;6026815;29;20370;-67
2022/10/11 14:39:22;;;;;;;0.70;0.70;;;12.20;99.50;;;;;;6027162;29;20270;-67
2022/10/11 14:42:29;;;;;;;3.00;0.68;;;12.20;99.90;;;;;;6026710;29;20279;-67
2022/10/11 14:45:34;;;;;;;1.92;0.60;;;12.10;99.40;;;;;;6026472;29;20294;-67
2022/10/11 14:48:39;;;;;;;1.48;0.70;;;12.10;99.50;;;;;;6026601;29;20278;-67
2022/10/11 14:52:00;;;;;;;0.70;0.70;;;12.10;99.60;;;;;;6026817;29;20278;-67
2022/10/11 14:55:05;;;;;;;0.70;0.70;;;12.10;99.10;;;;;;6026677;29;20282;-66
2022/10/11 14:58:16;;;;;;;0.50;0.50;;;12.10;99.10;;;;;;6026554;29;20278;-67
2022/10/11 15:01:21;;;;;;;1.05;0.70;;;12.10;98.90;;;;;;6026011;29;20278;-67
2022/10/11 15:04:27;;;;;;;0.50;0.50;;;12.10;99.20;;;;;;6026001;29;20621;-68
2022/10/11 15:07:33;;;;;;;0.90;0.70;;;12.10;98.90;;;;;;6026329;29;20302;-67
2022/10/11 15:10:40;;;;;;;2.78;0.93;;;12.00;98.70;;;;;;6034741;29;20438;-67
2022/10/11 15:13:46;;;;;;;5.93;0.75;;;12.00;99.00;;;;;;6048880;29;20302;-68
2022/10/11 15:16:51;;;;;;;3.00;0.63;;;12.00;99.20;;;;;;6049254;29;20277;-68
2022/10/11 15:19:56;;;;;;;3.08;0.70;;;11.90;98.80;;;;;;6049272;29;20269;-68
2022/10/11 15:23:01;;;;;;;0.60;0.60;;;11.90;98.80;;;;;;6048663;29;20556;-67
2022/10/11 15:26:06;;;;;;;0.75;0.75;;;11.90;98.80;;;;;;6049047;29;20293;-68
2022/10/11 15:29:16;;;;;;;0.70;0.70;;;11.90;99.20;;;;;;6048700;29;20304;-67
2022/10/11 15:32:21;;;;;;;0.80;0.80;;;12.00;99.50;;;;;;6048949;29;20553;-67
2022/10/11 15:35:28;;;;;;;1.85;0.70;;;11.90;99.50;;;;;;6048407;29;20275;-67
2022/10/11 15:38:33;;;;;;;2.28;0.77;;;11.80;99.60;;;;;;6048333;29;20282;-67
2022/10/11 15:41:38;;;;;;;4.45;1.90;;;11.80;99.30;;;;;;6048623;29;20269;-68
2022/10/11 15:44:44;;;;;;;2.30;0.90;;;11.90;99.40;;;;;;6048524;29;20298;-67
2022/10/11 15:47:49;;;;;;;0.95;0.95;;;11.80;99.60;;;;;;6048716;29;20279;-67
2022/10/11 15:50:55;;;;;;;1.95;1.00;;;11.80;99.80;;;;;;6048151;29;20454;-67
2022/10/11 15:54:00;;;;;;;6.40;1.15;;;11.80;99.90;;;;;;6062404;29;20274;-66
2022/10/11 15:57:04;;;;;;;9.32;1.50;;;11.80;99.80;;;;;;6048275;29;20281;-66
2022/10/11 16:00:14;;;;;;;5.68;1.00;;;11.70;99.90;;;;;;6048085;29;20275;-67
2022/10/11 16:03:28;;;;;;;2.65;1.70;;;11.70;99.90;;;;;;6047976;29;20281;-67
2022/10/11 16:06:33;;;;;;;5.75;2.58;;;11.60;99.90;;;;;;6048130;29;20617;-67
2022/10/11 16:09:38;;;;;;;4.43;2.95;;;11.50;99.90;;;;;;6060033;29;20305;-66
2022/10/11 16:12:43;;;;;;;10.68;2.85;;;11.50;99.90;;;;;;6024333;29;20270;-67
2022/10/11 16:15:50;;;;;;;19.17;8.57;;;11.50;99.90;;;;;;6025071;29;20278;-67
2022/10/11 16:18:55;;;;;;;15.70;7.38;;;11.50;99.90;;;;;;6024926;29;20266;-67
2022/10/11 16:22:00;;;;;;;7.30;3.20;;;11.40;99.90;;;;;;6025002;29;20274;-67